sensor_id;sensor_type;location;lat;lon;timestamp;temperature;humidity
60868;DHT22;46702;48.370;10.794;2023-07-13T00:01:43;18.50;99.90
60868;DHT22;46702;48.370;10.794;2023-07-13T00:04:08;18.60;99.90
60868;DHT22;46702;48.370;10.794;2023-07-13T00:06:34;18.60;99.90
60868;DHT22;46702;48.370;10.794;2023-07-13T00:09:00;18.60;99.90
60868;DHT22;46702;48.370;10.794;2023-07-13T00:11:27;18.60;99.90
60868;DHT22;46702;48.370;10.794;2023-07-13T00:13:52;18.70;99.90
60868;DHT22;46702;48.370;10.794;2023-07-13T00:16:18;18.70;99.90
60868;DHT22;46702;48.370;10.794;2023-07-13T00:18:45;18.80;99.90
60868;DHT22;46702;48.370;10.794;2023-07-13T00:21:11;18.70;99.90
60868;DHT22;46702;48.370;10.794;2023-07-13T00:23:39;18.70;99.90
60868;DHT22;46702;48.370;10.794;2023-07-13T00:26:08;18.70;99.90
60868;DHT22;46702;48.370;10.794;2023-07-13T00:28:34;18.80;99.90
60868;DHT22;46702;48.370;10.794;2023-07-13T00:31:00;18.80;99.90
60868;DHT22;46702;48.370;10.794;2023-07-13T00:33:27;18.80;99.90
60868;DHT22;46702;48.370;10.794;2023-07-13T00:35:55;18.80;99.90
60868;DHT22;46702;48.370;10.794;2023-07-13T00:38:21;18.90;99.90
60868;DHT22;46702;48.370;10.794;2023-07-13T00:40:47;18.90;99.90
60868;DHT22;46702;48.370;10.794;2023-07-13T00:43:15;18.80;99.90
60868;DHT22;46702;48.370;10.794;2023-07-13T00:48:44;18.90;99.90
60868;DHT22;46702;48.370;10.794;2023-07-13T00:51:03;18.90;99.90
60868;DHT22;46702;48.370;10.794;2023-07-13T00:53:30;18.90;99.90
60868;DHT22;46702;48.370;10.794;2023-07-13T00:55:57;18.90;99.90
60868;DHT22;46702;48.370;10.794;2023-07-13T00:58:26;19.00;99.90
60868;DHT22;46702;48.370;10.794;2023-07-13T01:00:53;18.90;99.90
60868;DHT22;46702;48.370;10.794;2023-07-13T01:03:19;18.90;99.90
60868;DHT22;46702;48.370;10.794;2023-07-13T01:05:48;18.90;99.90
60868;DHT22;46702;48.370;10.794;2023-07-13T01:08:14;18.80;99.90
60868;DHT22;46702;48.370;10.794;2023-07-13T01:10:39;18.70;99.90
60868;DHT22;46702;48.370;10.794;2023-07-13T01:13:07;18.70;99.90
60868;DHT22;46702;48.370;10.794;2023-07-13T01:15:37;18.70;99.90
60868;DHT22;46702;48.370;10.794;2023-07-13T01:18:05;18.70;99.90
60868;DHT22;46702;48.370;10.794;2023-07-13T01:20:32;18.70;99.90
60868;DHT22;46702;48.370;10.794;2023-07-13T01:23:06;18.80;99.90
60868;DHT22;46702;48.370;10.794;2023-07-13T01:25:34;18.70;99.90
60868;DHT22;46702;48.370;10.794;2023-07-13T01:28:01;18.70;99.90
60868;DHT22;46702;48.370;10.794;2023-07-13T01:30:27;18.70;99.90
60868;DHT22;46702;48.370;10.794;2023-07-13T01:32:52;18.70;99.90
60868;DHT22;46702;48.370;10.794;2023-07-13T01:35:18;18.70;99.90
60868;DHT22;46702;48.370;10.794;2023-07-13T01:37:44;18.80;99.90
60868;DHT22;46702;48.370;10.794;2023-07-13T01:40:10;18.80;99.90
60868;DHT22;46702;48.370;10.794;2023-07-13T01:42:37;18.80;99.90
60868;DHT22;46702;48.370;10.794;2023-07-13T01:45:03;18.80;99.90
60868;DHT22;46702;48.370;10.794;2023-07-13T01:47:29;18.80;99.90
60868;DHT22;46702;48.370;10.794;2023-07-13T01:49:57;18.80;99.90
60868;DHT22;46702;48.370;10.794;2023-07-13T01:52:23;18.80;99.90
60868;DHT22;46702;48.370;10.794;2023-07-13T01:54:48;18.80;99.90
60868;DHT22;46702;48.370;10.794;2023-07-13T01:57:14;18.80;99.90
60868;DHT22;46702;48.370;10.794;2023-07-13T01:59:39;18.70;99.90
60868;DHT22;46702;48.370;10.794;2023-07-13T02:02:05;18.70;99.90
60868;DHT22;46702;48.370;10.794;2023-07-13T02:04:31;18.60;99.90
60868;DHT22;46702;48.370;10.794;2023-07-13T02:06:57;18.60;99.90
60868;DHT22;46702;48.370;10.794;2023-07-13T02:09:22;18.60;99.90
60868;DHT22;46702;48.370;10.794;2023-07-13T02:11:48;18.60;99.90
60868;DHT22;46702;48.370;10.794;2023-07-13T02:14:14;18.60;99.90
60868;DHT22;46702;48.370;10.794;2023-07-13T02:16:40;18.70;99.90
60868;DHT22;46702;48.370;10.794;2023-07-13T02:19:07;18.70;99.90
60868;DHT22;46702;48.370;10.794;2023-07-13T02:21:32;18.70;99.90
60868;DHT22;46702;48.370;10.794;2023-07-13T02:23:58;18.70;99.90
60868;DHT22;46702;48.370;10.794;2023-07-13T02:26:23;18.70;99.90
60868;DHT22;46702;48.370;10.794;2023-07-13T02:28:49;18.70;99.90
60868;DHT22;46702;48.370;10.794;2023-07-13T02:31:16;18.70;99.90
60868;DHT22;46702;48.370;10.794;2023-07-13T02:33:42;18.70;99.90
60868;DHT22;46702;48.370;10.794;2023-07-13T02:36:08;18.70;99.90
60868;DHT22;46702;48.370;10.794;2023-07-13T02:38:34;18.70;99.90
60868;DHT22;46702;48.370;10.794;2023-07-13T02:41:02;18.70;99.90
60868;DHT22;46702;48.370;10.794;2023-07-13T02:43:28;18.70;99.90
60868;DHT22;46702;48.370;10.794;2023-07-13T02:45:53;18.70;99.90
60868;DHT22;46702;48.370;10.794;2023-07-13T02:48:19;18.70;99.90
60868;DHT22;46702;48.370;10.794;2023-07-13T02:50:45;18.70;99.90
60868;DHT22;46702;48.370;10.794;2023-07-13T02:53:11;18.60;99.90
60868;DHT22;46702;48.370;10.794;2023-07-13T02:55:36;18.60;99.90
60868;DHT22;46702;48.370;10.794;2023-07-13T02:58:02;18.60;99.90
60868;DHT22;46702;48.370;10.794;2023-07-13T03:00:28;18.60;99.90
60868;DHT22;46702;48.370;10.794;2023-07-13T03:02:54;18.50;99.90
60868;DHT22;46702;48.370;10.794;2023-07-13T03:05:23;18.50;99.90
60868;DHT22;46702;48.370;10.794;2023-07-13T03:07:48;18.50;99.90
60868;DHT22;46702;48.370;10.794;2023-07-13T03:10:14;18.50;99.90
60868;DHT22;46702;48.370;10.794;2023-07-13T03:12:40;18.60;99.90
60868;DHT22;46702;48.370;10.794;2023-07-13T03:15:06;18.50;99.90
60868;DHT22;46702;48.370;10.794;2023-07-13T03:17:31;18.50;99.90
60868;DHT22;46702;48.370;10.794;2023-07-13T03:19:57;18.40;99.90
60868;DHT22;46702;48.370;10.794;2023-07-13T03:22:23;18.50;99.90
60868;DHT22;46702;48.370;10.794;2023-07-13T03:24:48;18.50;99.90
60868;DHT22;46702;48.370;10.794;2023-07-13T03:27:16;18.50;99.90
60868;DHT22;46702;48.370;10.794;2023-07-13T03:29:42;18.50;99.90
60868;DHT22;46702;48.370;10.794;2023-07-13T03:32:08;18.40;99.90
60868;DHT22;46702;48.370;10.794;2023-07-13T03:34:33;18.30;99.90
60868;DHT22;46702;48.370;10.794;2023-07-13T03:36:59;18.30;99.90
60868;DHT22;46702;48.370;10.794;2023-07-13T03:39:24;18.20;99.90
60868;DHT22;46702;48.370;10.794;2023-07-13T03:41:50;18.10;99.90
60868;DHT22;46702;48.370;10.794;2023-07-13T03:44:17;18.20;99.90
60868;DHT22;46702;48.370;10.794;2023-07-13T03:46:43;18.30;99.90
60868;DHT22;46702;48.370;10.794;2023-07-13T03:49:09;18.20;99.90
60868;DHT22;46702;48.370;10.794;2023-07-13T03:51:35;18.00;99.90
60868;DHT22;46702;48.370;10.794;2023-07-13T03:54:01;18.10;99.90
60868;DHT22;46702;48.370;10.794;2023-07-13T03:56:28;18.10;99.90
60868;DHT22;46702;48.370;10.794;2023-07-13T03:58:55;18.10;99.90
60868;DHT22;46702;48.370;10.794;2023-07-13T04:01:22;18.20;99.90
60868;DHT22;46702;48.370;10.794;2023-07-13T04:03:48;18.20;99.90
60868;DHT22;46702;48.370;10.794;2023-07-13T04:06:23;18.20;99.90
60868;DHT22;46702;48.370;10.794;2023-07-13T04:08:51;18.20;99.90
60868;DHT22;46702;48.370;10.794;2023-07-13T04:11:19;18.20;99.90
60868;DHT22;46702;48.370;10.794;2023-07-13T04:13:45;18.10;99.90
60868;DHT22;46702;48.370;10.794;2023-07-13T04:16:12;18.10;99.90
60868;DHT22;46702;48.370;10.794;2023-07-13T04:18:37;18.10;99.90
60868;DHT22;46702;48.370;10.794;2023-07-13T04:21:03;18.10;99.90
60868;DHT22;46702;48.370;10.794;2023-07-13T04:23:28;18.00;99.90
60868;DHT22;46702;48.370;10.794;2023-07-13T04:25:54;18.00;99.90
60868;DHT22;46702;48.370;10.794;2023-07-13T04:28:21;18.00;99.90
60868;DHT22;46702;48.370;10.794;2023-07-13T04:30:47;18.00;99.90
60868;DHT22;46702;48.370;10.794;2023-07-13T04:33:12;18.00;99.90
60868;DHT22;46702;48.370;10.794;2023-07-13T04:35:38;18.00;99.90
60868;DHT22;46702;48.370;10.794;2023-07-13T04:38:03;17.90;99.90
60868;DHT22;46702;48.370;10.794;2023-07-13T04:40:29;17.90;99.90
60868;DHT22;46702;48.370;10.794;2023-07-13T04:42:55;18.00;99.90
60868;DHT22;46702;48.370;10.794;2023-07-13T04:45:21;18.00;99.90
60868;DHT22;46702;48.370;10.794;2023-07-13T04:47:47;18.00;99.90
60868;DHT22;46702;48.370;10.794;2023-07-13T04:50:14;17.90;99.90
60868;DHT22;46702;48.370;10.794;2023-07-13T04:52:44;18.00;99.90
60868;DHT22;46702;48.370;10.794;2023-07-13T04:55:10;18.00;99.90
60868;DHT22;46702;48.370;10.794;2023-07-13T04:57:36;18.00;99.90
60868;DHT22;46702;48.370;10.794;2023-07-13T05:00:02;18.00;99.90
60868;DHT22;46702;48.370;10.794;2023-07-13T05:02:31;18.10;99.90
60868;DHT22;46702;48.370;10.794;2023-07-13T05:04:58;18.10;99.90
60868;DHT22;46702;48.370;10.794;2023-07-13T05:07:24;18.10;99.90
60868;DHT22;46702;48.370;10.794;2023-07-13T05:09:50;18.10;99.90
60868;DHT22;46702;48.370;10.794;2023-07-13T05:12:15;18.10;99.90
60868;DHT22;46702;48.370;10.794;2023-07-13T05:14:41;18.10;99.90
60868;DHT22;46702;48.370;10.794;2023-07-13T05:17:06;18.10;99.90
60868;DHT22;46702;48.370;10.794;2023-07-13T05:19:32;18.20;99.90
60868;DHT22;46702;48.370;10.794;2023-07-13T05:21:58;18.20;99.90
60868;DHT22;46702;48.370;10.794;2023-07-13T05:24:23;18.30;99.90
60868;DHT22;46702;48.370;10.794;2023-07-13T05:26:49;18.30;99.90
60868;DHT22;46702;48.370;10.794;2023-07-13T05:29:15;18.30;99.90
60868;DHT22;46702;48.370;10.794;2023-07-13T05:31:41;18.40;99.90
60868;DHT22;46702;48.370;10.794;2023-07-13T05:34:06;18.40;99.90
60868;DHT22;46702;48.370;10.794;2023-07-13T05:36:32;18.40;99.90
60868;DHT22;46702;48.370;10.794;2023-07-13T05:38:57;18.40;99.90
60868;DHT22;46702;48.370;10.794;2023-07-13T05:41:23;18.40;99.90
60868;DHT22;46702;48.370;10.794;2023-07-13T05:43:49;18.40;99.90
60868;DHT22;46702;48.370;10.794;2023-07-13T05:46:14;18.40;99.90
60868;DHT22;46702;48.370;10.794;2023-07-13T05:48:40;18.40;99.90
60868;DHT22;46702;48.370;10.794;2023-07-13T05:51:06;18.30;99.90
60868;DHT22;46702;48.370;10.794;2023-07-13T05:53:31;18.30;99.90
60868;DHT22;46702;48.370;10.794;2023-07-13T05:55:57;18.30;99.90
60868;DHT22;46702;48.370;10.794;2023-07-13T05:58:23;18.30;99.90
60868;DHT22;46702;48.370;10.794;2023-07-13T06:00:48;18.30;99.90
60868;DHT22;46702;48.370;10.794;2023-07-13T06:03:14;18.20;99.90
60868;DHT22;46702;48.370;10.794;2023-07-13T06:05:41;18.20;99.90
60868;DHT22;46702;48.370;10.794;2023-07-13T06:08:07;18.30;99.90
60868;DHT22;46702;48.370;10.794;2023-07-13T06:10:34;18.20;99.90
60868;DHT22;46702;48.370;10.794;2023-07-13T06:13:00;18.30;99.90
60868;DHT22;46702;48.370;10.794;2023-07-13T06:15:25;18.30;99.90
60868;DHT22;46702;48.370;10.794;2023-07-13T06:17:51;18.30;99.90
60868;DHT22;46702;48.370;10.794;2023-07-13T06:20:16;18.40;99.90
60868;DHT22;46702;48.370;10.794;2023-07-13T06:22:42;18.20;99.90
60868;DHT22;46702;48.370;10.794;2023-07-13T06:25:08;18.20;99.90
60868;DHT22;46702;48.370;10.794;2023-07-13T06:27:34;18.20;99.90
60868;DHT22;46702;48.370;10.794;2023-07-13T06:29:59;18.20;99.90
60868;DHT22;46702;48.370;10.794;2023-07-13T06:32:25;18.20;99.90
60868;DHT22;46702;48.370;10.794;2023-07-13T06:34:51;18.20;99.90
60868;DHT22;46702;48.370;10.794;2023-07-13T06:37:17;18.20;99.90
60868;DHT22;46702;48.370;10.794;2023-07-13T06:39:43;18.10;99.90
60868;DHT22;46702;48.370;10.794;2023-07-13T06:42:09;18.00;99.90
60868;DHT22;46702;48.370;10.794;2023-07-13T06:44:34;18.10;99.90
60868;DHT22;46702;48.370;10.794;2023-07-13T06:47:00;18.00;99.90
60868;DHT22;46702;48.370;10.794;2023-07-13T06:49:26;18.10;99.90
60868;DHT22;46702;48.370;10.794;2023-07-13T06:51:51;18.10;99.90
60868;DHT22;46702;48.370;10.794;2023-07-13T06:54:17;18.10;99.90
60868;DHT22;46702;48.370;10.794;2023-07-13T06:56:42;18.20;99.90
60868;DHT22;46702;48.370;10.794;2023-07-13T06:59:08;18.30;99.90
60868;DHT22;46702;48.370;10.794;2023-07-13T07:01:34;18.30;99.90
60868;DHT22;46702;48.370;10.794;2023-07-13T07:03:59;18.40;99.90
60868;DHT22;46702;48.370;10.794;2023-07-13T07:06:25;18.50;99.90
60868;DHT22;46702;48.370;10.794;2023-07-13T07:08:51;18.60;99.90
60868;DHT22;46702;48.370;10.794;2023-07-13T07:11:21;18.60;99.90
60868;DHT22;46702;48.370;10.794;2023-07-13T07:13:51;18.60;99.90
60868;DHT22;46702;48.370;10.794;2023-07-13T07:16:17;18.70;99.90
60868;DHT22;46702;48.370;10.794;2023-07-13T07:18:43;18.90;99.90
60868;DHT22;46702;48.370;10.794;2023-07-13T07:21:10;19.00;99.90
60868;DHT22;46702;48.370;10.794;2023-07-13T07:23:35;19.00;99.90
60868;DHT22;46702;48.370;10.794;2023-07-13T07:26:02;19.10;99.90
60868;DHT22;46702;48.370;10.794;2023-07-13T07:28:27;19.30;99.90
60868;DHT22;46702;48.370;10.794;2023-07-13T07:30:57;19.40;99.90
60868;DHT22;46702;48.370;10.794;2023-07-13T07:33:23;19.40;99.90
60868;DHT22;46702;48.370;10.794;2023-07-13T07:35:49;19.50;99.90
60868;DHT22;46702;48.370;10.794;2023-07-13T07:38:14;19.60;99.90
60868;DHT22;46702;48.370;10.794;2023-07-13T07:40:41;19.80;99.90
60868;DHT22;46702;48.370;10.794;2023-07-13T07:43:07;19.80;99.90
60868;DHT22;46702;48.370;10.794;2023-07-13T07:45:34;19.60;99.90
60868;DHT22;46702;48.370;10.794;2023-07-13T07:48:00;19.70;99.90
60868;DHT22;46702;48.370;10.794;2023-07-13T07:50:27;19.80;99.90
60868;DHT22;46702;48.370;10.794;2023-07-13T07:52:53;19.90;99.90
60868;DHT22;46702;48.370;10.794;2023-07-13T07:55:21;20.10;99.90
60868;DHT22;46702;48.370;10.794;2023-07-13T07:57:47;19.90;99.90
60868;DHT22;46702;48.370;10.794;2023-07-13T08:00:13;19.70;99.90
60868;DHT22;46702;48.370;10.794;2023-07-13T08:02:38;19.60;99.90
60868;DHT22;46702;48.370;10.794;2023-07-13T08:05:07;19.60;99.90
60868;DHT22;46702;48.370;10.794;2023-07-13T08:07:34;19.50;99.90
60868;DHT22;46702;48.370;10.794;2023-07-13T08:10:00;19.60;99.90
60868;DHT22;46702;48.370;10.794;2023-07-13T08:12:26;19.80;99.90
60868;DHT22;46702;48.370;10.794;2023-07-13T08:14:52;19.90;99.90
60868;DHT22;46702;48.370;10.794;2023-07-13T08:17:23;19.90;99.90
60868;DHT22;46702;48.370;10.794;2023-07-13T08:19:49;19.90;99.90
60868;DHT22;46702;48.370;10.794;2023-07-13T08:22:15;19.90;99.90
60868;DHT22;46702;48.370;10.794;2023-07-13T08:24:40;19.90;99.90
60868;DHT22;46702;48.370;10.794;2023-07-13T08:27:08;20.00;99.90
60868;DHT22;46702;48.370;10.794;2023-07-13T08:29:34;20.20;99.90
60868;DHT22;46702;48.370;10.794;2023-07-13T08:31:59;20.40;99.90
60868;DHT22;46702;48.370;10.794;2023-07-13T08:34:25;20.60;99.90
60868;DHT22;46702;48.370;10.794;2023-07-13T08:36:51;20.80;99.90
60868;DHT22;46702;48.370;10.794;2023-07-13T08:39:16;20.80;99.90
60868;DHT22;46702;48.370;10.794;2023-07-13T08:41:45;20.90;99.90
60868;DHT22;46702;48.370;10.794;2023-07-13T08:44:22;20.80;99.90
60868;DHT22;46702;48.370;10.794;2023-07-13T08:46:53;20.70;99.90
60868;DHT22;46702;48.370;10.794;2023-07-13T08:49:22;20.60;99.90
60868;DHT22;46702;48.370;10.794;2023-07-13T08:52:12;20.70;99.90
60868;DHT22;46702;48.370;10.794;2023-07-13T08:54:44;20.60;99.90
60868;DHT22;46702;48.370;10.794;2023-07-13T08:57:15;20.70;99.90
60868;DHT22;46702;48.370;10.794;2023-07-13T08:59:42;20.80;99.90
60868;DHT22;46702;48.370;10.794;2023-07-13T09:04:50;21.30;99.90
60868;DHT22;46702;48.370;10.794;2023-07-13T09:07:40;21.20;99.90
60868;DHT22;46702;48.370;10.794;2023-07-13T09:10:33;21.20;99.90
60868;DHT22;46702;48.370;10.794;2023-07-13T09:15:50;21.20;99.90
60868;DHT22;46702;48.370;10.794;2023-07-13T09:19:08;21.20;99.90
60868;DHT22;46702;48.370;10.794;2023-07-13T09:21:15;21.30;99.90
60868;DHT22;46702;48.370;10.794;2023-07-13T09:23:41;21.50;99.90
60868;DHT22;46702;48.370;10.794;2023-07-13T09:26:18;21.60;99.90
60868;DHT22;46702;48.370;10.794;2023-07-13T09:28:48;21.70;99.90
60868;DHT22;46702;48.370;10.794;2023-07-13T09:33:55;21.40;99.90
60868;DHT22;46702;48.370;10.794;2023-07-13T09:36:26;21.40;99.90
60868;DHT22;46702;48.370;10.794;2023-07-13T09:39:14;21.50;99.90
60868;DHT22;46702;48.370;10.794;2023-07-13T09:42:15;21.70;99.90
60868;DHT22;46702;48.370;10.794;2023-07-13T09:47:17;21.90;99.90
60868;DHT22;46702;48.370;10.794;2023-07-13T09:49:44;21.60;99.90
60868;DHT22;46702;48.370;10.794;2023-07-13T09:52:14;21.60;99.90
60868;DHT22;46702;48.370;10.794;2023-07-13T09:54:45;21.60;99.90
60868;DHT22;46702;48.370;10.794;2023-07-13T09:57:20;21.50;99.90
60868;DHT22;46702;48.370;10.794;2023-07-13T09:59:49;21.30;99.90
60868;DHT22;46702;48.370;10.794;2023-07-13T10:02:35;21.50;99.90
60868;DHT22;46702;48.370;10.794;2023-07-13T10:05:11;21.80;99.90
60868;DHT22;46702;48.370;10.794;2023-07-13T10:07:43;21.90;99.90
60868;DHT22;46702;48.370;10.794;2023-07-13T10:10:17;22.00;99.90
60868;DHT22;46702;48.370;10.794;2023-07-13T10:12:44;22.10;99.90
60868;DHT22;46702;48.370;10.794;2023-07-13T10:15:16;22.50;99.90
60868;DHT22;46702;48.370;10.794;2023-07-13T10:17:43;22.40;99.90
60868;DHT22;46702;48.370;10.794;2023-07-13T10:20:09;22.40;99.90
60868;DHT22;46702;48.370;10.794;2023-07-13T10:25:25;22.10;99.90
60868;DHT22;46702;48.370;10.794;2023-07-13T10:27:54;21.70;99.90
60868;DHT22;46702;48.370;10.794;2023-07-13T10:30:28;21.60;99.90
60868;DHT22;46702;48.370;10.794;2023-07-13T10:32:58;21.90;99.90
60868;DHT22;46702;48.370;10.794;2023-07-13T10:35:26;22.00;99.90
60868;DHT22;46702;48.370;10.794;2023-07-13T10:38:00;22.00;99.90
60868;DHT22;46702;48.370;10.794;2023-07-13T10:40:34;21.90;99.90
60868;DHT22;46702;48.370;10.794;2023-07-13T10:43:07;21.90;99.90
60868;DHT22;46702;48.370;10.794;2023-07-13T10:45:35;21.70;99.90
60868;DHT22;46702;48.370;10.794;2023-07-13T10:48:03;21.70;99.90
60868;DHT22;46702;48.370;10.794;2023-07-13T10:50:30;21.70;99.90
60868;DHT22;46702;48.370;10.794;2023-07-13T10:53:19;22.00;99.90
60868;DHT22;46702;48.370;10.794;2023-07-13T11:03:38;22.90;99.90
60868;DHT22;46702;48.370;10.794;2023-07-13T11:06:15;23.30;99.90
60868;DHT22;46702;48.370;10.794;2023-07-13T11:18:49;23.90;99.90
60868;DHT22;46702;48.370;10.794;2023-07-13T11:21:17;23.90;99.90
60868;DHT22;46702;48.370;10.794;2023-07-13T11:23:47;24.10;99.90
60868;DHT22;46702;48.370;10.794;2023-07-13T11:26:43;24.40;99.90
60868;DHT22;46702;48.370;10.794;2023-07-13T11:31:41;24.10;99.90
60868;DHT22;46702;48.370;10.794;2023-07-13T11:34:13;24.10;99.90
60868;DHT22;46702;48.370;10.794;2023-07-13T11:36:43;23.80;99.90
60868;DHT22;46702;48.370;10.794;2023-07-13T11:41:44;23.50;99.90
60868;DHT22;46702;48.370;10.794;2023-07-13T11:44:14;23.60;99.90
60868;DHT22;46702;48.370;10.794;2023-07-13T11:46:46;23.80;99.90
60868;DHT22;46702;48.370;10.794;2023-07-13T11:49:15;23.40;99.90
60868;DHT22;46702;48.370;10.794;2023-07-13T11:51:41;23.60;99.90
60868;DHT22;46702;48.370;10.794;2023-07-13T11:54:29;23.60;99.90
60868;DHT22;46702;48.370;10.794;2023-07-13T11:57:06;23.80;99.90
60868;DHT22;46702;48.370;10.794;2023-07-13T11:59:40;24.00;99.90
60868;DHT22;46702;48.370;10.794;2023-07-13T12:02:16;24.30;99.90
60868;DHT22;46702;48.370;10.794;2023-07-13T12:04:43;24.30;99.90
60868;DHT22;46702;48.370;10.794;2023-07-13T12:07:17;24.60;99.90
60868;DHT22;46702;48.370;10.794;2023-07-13T12:09:44;24.80;99.90
60868;DHT22;46702;48.370;10.794;2023-07-13T12:12:16;24.70;99.90
60868;DHT22;46702;48.370;10.794;2023-07-13T12:14:43;24.70;99.90
60868;DHT22;46702;48.370;10.794;2023-07-13T12:17:21;24.70;99.90
60868;DHT22;46702;48.370;10.794;2023-07-13T12:19:51;25.00;99.90
60868;DHT22;46702;48.370;10.794;2023-07-13T12:22:19;25.50;99.90
60868;DHT22;46702;48.370;10.794;2023-07-13T12:24:46;25.30;99.90
60868;DHT22;46702;48.370;10.794;2023-07-13T12:27:24;25.40;99.90
60868;DHT22;46702;48.370;10.794;2023-07-13T12:30:27;25.20;99.90
60868;DHT22;46702;48.370;10.794;2023-07-13T12:33:00;24.90;99.90
60868;DHT22;46702;48.370;10.794;2023-07-13T12:35:29;25.00;99.90
60868;DHT22;46702;48.370;10.794;2023-07-13T12:38:01;25.10;99.90
60868;DHT22;46702;48.370;10.794;2023-07-13T12:40:34;25.20;99.90
60868;DHT22;46702;48.370;10.794;2023-07-13T12:43:01;25.20;99.90
60868;DHT22;46702;48.370;10.794;2023-07-13T12:45:29;25.70;99.90
60868;DHT22;46702;48.370;10.794;2023-07-13T12:47:58;26.00;99.90
60868;DHT22;46702;48.370;10.794;2023-07-13T12:50:39;25.70;99.90
60868;DHT22;46702;48.370;10.794;2023-07-13T12:53:13;25.20;99.90
60868;DHT22;46702;48.370;10.794;2023-07-13T12:55:47;25.00;99.90
60868;DHT22;46702;48.370;10.794;2023-07-13T13:00:51;25.10;99.90
60868;DHT22;46702;48.370;10.794;2023-07-13T13:03:38;25.10;99.90
60868;DHT22;46702;48.370;10.794;2023-07-13T13:06:27;24.90;99.90
60868;DHT22;46702;48.370;10.794;2023-07-13T13:08:57;25.00;99.90
60868;DHT22;46702;48.370;10.794;2023-07-13T13:11:24;25.10;99.90
60868;DHT22;46702;48.370;10.794;2023-07-13T13:13:51;24.90;99.90
60868;DHT22;46702;48.370;10.794;2023-07-13T13:18:54;24.70;99.90
60868;DHT22;46702;48.370;10.794;2023-07-13T13:21:23;24.70;99.90
60868;DHT22;46702;48.370;10.794;2023-07-13T13:23:49;24.90;99.90
60868;DHT22;46702;48.370;10.794;2023-07-13T13:26:23;24.80;99.90
60868;DHT22;46702;48.370;10.794;2023-07-13T13:28:49;24.50;99.90
60868;DHT22;46702;48.370;10.794;2023-07-13T13:31:15;24.50;99.90
60868;DHT22;46702;48.370;10.794;2023-07-13T13:33:42;24.30;99.90
60868;DHT22;46702;48.370;10.794;2023-07-13T13:36:21;24.40;99.90
60868;DHT22;46702;48.370;10.794;2023-07-13T13:38:49;25.10;99.90
60868;DHT22;46702;48.370;10.794;2023-07-13T13:41:14;25.60;99.90
60868;DHT22;46702;48.370;10.794;2023-07-13T13:43:41;25.80;99.90
60868;DHT22;46702;48.370;10.794;2023-07-13T13:46:16;26.00;99.90
60868;DHT22;46702;48.370;10.794;2023-07-13T13:48:43;25.90;99.90
60868;DHT22;46702;48.370;10.794;2023-07-13T13:51:20;25.90;99.90
60868;DHT22;46702;48.370;10.794;2023-07-13T13:53:47;26.20;99.90
60868;DHT22;46702;48.370;10.794;2023-07-13T13:56:16;26.20;99.90
60868;DHT22;46702;48.370;10.794;2023-07-13T13:58:42;26.50;99.90
60868;DHT22;46702;48.370;10.794;2023-07-13T14:01:19;26.60;99.90
60868;DHT22;46702;48.370;10.794;2023-07-13T14:03:45;26.30;99.90
60868;DHT22;46702;48.370;10.794;2023-07-13T14:06:14;26.10;99.90
60868;DHT22;46702;48.370;10.794;2023-07-13T14:08:40;25.90;99.90
60868;DHT22;46702;48.370;10.794;2023-07-13T14:11:15;25.70;99.90
60868;DHT22;46702;48.370;10.794;2023-07-13T14:13:50;25.70;99.90
60868;DHT22;46702;48.370;10.794;2023-07-13T14:16:20;26.00;99.90
60868;DHT22;46702;48.370;10.794;2023-07-13T14:18:47;26.10;99.90
60868;DHT22;46702;48.370;10.794;2023-07-13T14:21:18;26.40;99.90
60868;DHT22;46702;48.370;10.794;2023-07-13T14:23:45;26.70;99.90
60868;DHT22;46702;48.370;10.794;2023-07-13T14:26:19;26.80;99.90
60868;DHT22;46702;48.370;10.794;2023-07-13T14:28:49;26.60;99.90
60868;DHT22;46702;48.370;10.794;2023-07-13T14:31:16;26.30;99.90
60868;DHT22;46702;48.370;10.794;2023-07-13T14:33:42;26.20;99.90
60868;DHT22;46702;48.370;10.794;2023-07-13T14:36:28;26.30;99.90
60868;DHT22;46702;48.370;10.794;2023-07-13T14:38:57;26.30;99.90
60868;DHT22;46702;48.370;10.794;2023-07-13T14:41:22;26.30;99.90
60868;DHT22;46702;48.370;10.794;2023-07-13T14:43:48;26.10;99.90
60868;DHT22;46702;48.370;10.794;2023-07-13T14:46:33;26.20;99.90
60868;DHT22;46702;48.370;10.794;2023-07-13T14:49:12;26.30;99.90
60868;DHT22;46702;48.370;10.794;2023-07-13T14:51:38;26.30;99.90
60868;DHT22;46702;48.370;10.794;2023-07-13T14:54:06;26.20;99.90
60868;DHT22;46702;48.370;10.794;2023-07-13T14:56:34;26.10;99.90
60868;DHT22;46702;48.370;10.794;2023-07-13T14:58:59;25.90;99.90
60868;DHT22;46702;48.370;10.794;2023-07-13T15:01:25;25.80;99.90
60868;DHT22;46702;48.370;10.794;2023-07-13T15:03:52;25.90;99.90
60868;DHT22;46702;48.370;10.794;2023-07-13T15:06:18;26.00;99.90
60868;DHT22;46702;48.370;10.794;2023-07-13T15:08:45;26.20;99.90
60868;DHT22;46702;48.370;10.794;2023-07-13T15:11:11;26.20;99.90
60868;DHT22;46702;48.370;10.794;2023-07-13T15:13:38;26.30;99.90
60868;DHT22;46702;48.370;10.794;2023-07-13T15:16:08;26.20;99.90
60868;DHT22;46702;48.370;10.794;2023-07-13T15:18:36;26.20;99.90
60868;DHT22;46702;48.370;10.794;2023-07-13T15:21:09;26.00;99.90
60868;DHT22;46702;48.370;10.794;2023-07-13T15:23:36;26.00;99.90
60868;DHT22;46702;48.370;10.794;2023-07-13T15:26:01;26.20;99.90
60868;DHT22;46702;48.370;10.794;2023-07-13T15:28:28;26.20;99.90
60868;DHT22;46702;48.370;10.794;2023-07-13T15:30:54;26.10;99.90
60868;DHT22;46702;48.370;10.794;2023-07-13T15:33:26;26.00;99.90
60868;DHT22;46702;48.370;10.794;2023-07-13T15:35:53;26.20;99.90
60868;DHT22;46702;48.370;10.794;2023-07-13T15:38:22;26.30;99.90
60868;DHT22;46702;48.370;10.794;2023-07-13T15:40:49;26.40;99.90
60868;DHT22;46702;48.370;10.794;2023-07-13T15:43:16;26.30;99.90
60868;DHT22;46702;48.370;10.794;2023-07-13T15:45:42;26.40;99.90
60868;DHT22;46702;48.370;10.794;2023-07-13T15:48:17;26.50;99.90
60868;DHT22;46702;48.370;10.794;2023-07-13T15:50:45;26.30;99.90
60868;DHT22;46702;48.370;10.794;2023-07-13T15:53:14;26.20;99.90
60868;DHT22;46702;48.370;10.794;2023-07-13T15:55:41;26.00;99.90
60868;DHT22;46702;48.370;10.794;2023-07-13T15:58:11;25.80;99.90
60868;DHT22;46702;48.370;10.794;2023-07-13T16:00:37;25.70;99.90
60868;DHT22;46702;48.370;10.794;2023-07-13T16:03:03;25.50;99.90
60868;DHT22;46702;48.370;10.794;2023-07-13T16:05:30;25.30;99.90
60868;DHT22;46702;48.370;10.794;2023-07-13T16:07:56;25.40;99.90